Time;durP1;ratioP1;P1;durP2;ratioP2;P2;SDS_P1;SDS_P2;PMS_P1;PMS_P2;Temp;Humidity;BMP_temperature;BMP_pressure;BME280_temperature;BME280_humidity;BME280_pressure;Samples;Min_cycle;Max_cycle;Signal;HPM_P1;HPM_P2
2022/11/30 00:00:05;;;;;;;75.07;31.17;;;;;;;10.69;67.16;101551.13;677868;29;1188;-81
2022/11/30 00:00:32;;;;;;;73.70;32.33;;;;;;;10.65;67.21;101536.19;677831;29;1251;-81
2022/11/30 00:00:53;;;;;;;68.40;31.83;;;;;;;10.65;67.34;101541.41;678041;29;1243;-81
2022/11/30 00:01:20;;;;;;;70.82;31.40;;;;;;;10.68;67.11;101551.94;677451;29;1272;-81
2022/11/30 00:01:40;;;;;;;71.93;30.80;;;;;;;10.69;67.50;101553.72;678090;29;863;-81
2022/11/30 00:02:01;;;;;;;73.77;31.87;;;;;;;10.69;67.38;101563.25;678032;29;1127;-81
2022/11/30 00:02:21;;;;;;;74.95;32.35;;;;;;;10.61;67.40;101539.47;677927;29;1068;-81
2022/11/30 00:02:42;;;;;;;75.10;31.70;;;;;;;10.67;67.34;101550.16;680691;29;1344;-81
2022/11/30 00:03:03;;;;;;;76.35;31.77;;;;;;;10.68;67.59;101548.44;680660;29;1107;-81
2022/11/30 00:03:24;;;;;;;72.07;31.13;;;;;;;10.65;67.27;101545.72;677905;29;1218;-80
2022/11/30 00:03:46;;;;;;;72.35;31.55;;;;;;;10.60;67.41;101548.13;675429;29;1502;-81
2022/11/30 00:04:07;;;;;;;73.05;31.35;;;;;;;10.67;67.68;101552.78;672822;29;1119;-81
2022/11/30 00:04:27;;;;;;;73.57;30.88;;;;;;;10.62;67.43;101546.47;672671;29;1157;-81
2022/11/30 00:04:48;;;;;;;74.87;30.77;;;;;;;10.65;67.36;101543.09;675428;29;887;-81
2022/11/30 00:05:08;;;;;;;73.68;31.40;;;;;;;10.68;67.38;101551.94;675279;29;1114;-81
2022/11/30 00:05:29;;;;;;;72.70;32.35;;;;;;;10.62;67.60;101545.59;675438;29;1041;-82
2022/11/30 00:05:50;;;;;;;70.00;32.58;;;;;;;10.67;67.39;101546.66;672840;29;1205;-81
2022/11/30 00:06:14;;;;;;;77.55;33.00;;;;;;;10.69;67.55;101547.59;672532;29;1376;-80
2022/11/30 00:06:35;;;;;;;78.35;32.42;;;;;;;10.72;67.42;101541.63;672672;29;1247;-81
2022/11/30 00:06:56;;;;;;;78.17;31.80;;;;;;;10.74;67.08;101538.25;677894;29;1110;-81
2022/11/30 00:07:16;;;;;;;73.47;30.33;;;;;;;10.85;67.09;101558.66;680394;29;1230;-81
2022/11/30 00:07:37;;;;;;;75.30;31.10;;;;;;;10.81;67.00;101531.53;678057;29;1259;-81
2022/11/30 00:08:00;;;;;;;71.32;31.08;;;;;;;10.88;66.84;101545.75;672850;29;1144;-81
2022/11/30 00:08:20;;;;;;;69.55;31.55;;;;;;;10.86;66.68;101544.78;672610;29;1310;-81
2022/11/30 00:08:41;;;;;;;68.77;31.40;;;;;;;10.88;66.60;101546.59;672925;29;725;-81
2022/11/30 00:09:02;;;;;;;72.38;32.20;;;;;;;10.83;66.66;101538.59;675393;29;1238;-80
2022/11/30 00:09:23;;;;;;;71.27;31.87;;;;;;;10.79;66.92;101548.88;677790;29;1067;-81
2022/11/30 00:09:43;;;;;;;74.35;33.05;;;;;;;10.72;66.87;101541.63;675433;29;1180;-80
2022/11/30 00:10:05;;;;;;;75.85;32.13;;;;;;;10.69;67.06;101540.66;677863;29;1198;-82
2022/11/30 00:10:25;;;;;;;75.60;31.88;;;;;;;10.68;67.04;101536.28;675284;29;1430;-81
2022/11/30 00:10:46;;;;;;;71.07;30.52;;;;;;;10.66;66.86;101540.56;677972;29;1178;-81
2022/11/30 00:11:12;;;;;;;69.83;30.80;;;;;;;10.67;67.17;101544.03;677955;29;1093;-81
2022/11/30 00:11:32;;;;;;;72.03;30.48;;;;;;;10.77;67.17;101545.31;672840;29;780;-81
2022/11/30 00:11:53;;;;;;;74.40;30.75;;;;;;;10.78;66.94;101531.41;672665;29;1300;-80
2022/11/30 00:12:14;;;;;;;73.78;30.88;;;;;;;10.88;66.86;101538.78;672428;29;1171;-82
2022/11/30 00:12:35;;;;;;;74.38;31.15;;;;;;;10.91;66.66;101538.91;672919;29;706;-81
2022/11/30 00:12:55;;;;;;;75.23;31.03;;;;;;;10.96;66.52;101539.97;672862;29;956;-81
2022/11/30 00:13:16;;;;;;;74.78;30.70;;;;;;;10.95;66.64;101535.56;680399;29;1211;-82
2022/11/30 00:13:36;;;;;;;74.50;30.85;;;;;;;11.01;66.47;101534.03;680531;29;1323;-81
2022/11/30 00:13:57;;;;;;;69.63;30.60;;;;;;;10.96;66.38;101526.91;678089;29;784;-81
2022/11/30 00:14:18;;;;;;;70.65;31.00;;;;;;;10.92;66.43;101542.41;675224;29;1198;-82
2022/11/30 00:14:38;;;;;;;70.07;30.67;;;;;;;11.01;66.39;101536.66;677995;29;1215;-81
2022/11/30 00:14:59;;;;;;;74.32;31.48;;;;;;;11.01;66.10;101539.25;678079;29;1153;-81
2022/11/30 00:15:20;;;;;;;78.97;32.17;;;;;;;11.00;65.98;101527.91;677825;29;1184;-80
2022/11/30 00:15:40;;;;;;;78.40;32.03;;;;;;;10.94;66.22;101528.56;675379;29;1167;-81
2022/11/30 00:16:02;;;;;;;80.15;32.22;;;;;;;10.96;66.25;101534.75;678095;29;1069;-82
2022/11/30 00:16:23;;;;;;;80.94;32.44;;;;;;;11.09;66.19;101543.06;675048;29;1141;-81
2022/11/30 00:17:05;;;;;;;82.20;32.77;;;;;;;11.08;66.15;101542.16;675304;29;957;-81
2022/11/30 00:17:26;;;;;;;76.13;31.75;;;;;;;10.97;66.18;101541.78;677762;29;1358;-81
2022/11/30 00:17:47;;;;;;;75.40;31.95;;;;;;;10.93;66.18;101534.63;678475;29;1077;-81
2022/11/30 00:18:07;;;;;;;79.32;32.80;;;;;;;11.05;66.25;101551.63;678169;29;1185;-82
2022/11/30 00:18:28;;;;;;;81.00;34.47;;;;;;;10.99;66.43;101544.41;675302;29;749;-81
2022/11/30 00:18:49;;;;;;;81.28;34.35;;;;;;;10.86;66.24;101535.22;670255;29;1187;-81
2022/11/30 00:19:10;;;;;;;76.85;33.15;;;;;;;11.01;66.27;101550.63;669969;29;1324;-82
2022/11/30 00:19:31;;;;;;;75.95;31.65;;;;;;;10.99;66.22;101536.59;670321;29;1172;-81
2022/11/30 00:19:51;;;;;;;74.07;31.27;;;;;;;11.04;65.92;101528.91;672490;29;1055;-82
2022/11/30 00:20:14;;;;;;;72.87;31.17;;;;;;;11.04;66.21;101537.66;675169;29;1145;-81
2022/11/30 00:20:34;;;;;;;70.07;31.05;;;;;;;11.00;66.10;101529.66;678105;29;808;-81
2022/11/30 00:21:03;;;;;;;73.57;31.48;;;;;;;11.02;66.30;101548.88;678061;29;1504;-81
2022/11/30 00:21:24;;;;;;;71.70;31.38;;;;;;;11.05;66.11;101541.19;680527;29;1203;-81
2022/11/30 00:21:45;;;;;;;74.47;32.20;;;;;;;11.06;66.11;101529.91;680611;29;804;-82
2022/11/30 00:22:05;;;;;;;80.03;32.88;;;;;;;11.06;66.02;101533.38;677920;29;1216;-81
2022/11/30 00:22:26;;;;;;;81.18;33.30;;;;;;;11.07;66.29;101542.13;680371;29;1307;-81
2022/11/30 00:22:47;;;;;;;81.65;32.75;;;;;;;11.01;66.10;101549.72;678077;29;883;-81
2022/11/30 00:23:08;;;;;;;75.68;31.80;;;;;;;10.94;66.21;101535.53;680395;29;1071;-81
2022/11/30 00:23:34;;;;;;;75.63;30.85;;;;;;;10.95;66.14;101546.03;675289;29;1923;-82
2022/11/30 00:23:55;;;;;;;69.25;29.40;;;;;;;10.96;66.25;101539.09;683173;29;1332;-82
2022/11/30 00:24:15;;;;;;;67.40;29.40;;;;;;;10.99;66.27;101535.72;675099;29;1177;-82
2022/11/30 00:24:36;;;;;;;68.60;30.10;;;;;;;10.99;66.06;101535.72;677941;29;899;-81
2022/11/30 00:24:59;;;;;;;75.00;32.05;;;;;;;10.99;65.94;101530.50;675473;29;820;-81
2022/11/30 00:25:19;;;;;;;77.05;32.40;;;;;;;11.05;66.10;101542.06;677735;29;1043;-82
2022/11/30 00:25:40;;;;;;;74.83;32.10;;;;;;;11.06;66.17;101541.22;677882;29;1221;-81
2022/11/30 00:26:02;;;;;;;73.60;31.33;;;;;;;11.06;66.22;101535.13;675384;29;1187;-82
2022/11/30 00:26:22;;;;;;;70.22;30.80;;;;;;;11.07;65.93;101536.91;680355;29;1192;-82
2022/11/30 00:26:43;;;;;;;71.43;30.87;;;;;;;11.09;66.04;101548.28;677783;29;1039;-81
2022/11/30 00:27:04;;;;;;;70.45;30.40;;;;;;;11.10;65.97;101537.00;683195;29;1160;-81
2022/11/30 00:27:28;;;;;;;75.07;31.00;;;;;;;11.12;65.99;101547.50;679851;29;1239;-81
2022/11/30 00:27:49;;;;;;;73.07;31.02;;;;;;;11.06;65.84;101535.13;671899;29;836;-81
2022/11/30 00:28:10;;;;;;;74.30;31.53;;;;;;;11.10;65.89;101545.75;677693;29;1097;-82
2022/11/30 00:28:32;;;;;;;73.55;30.52;;;;;;;11.04;66.04;101531.53;677981;29;1451;-81
2022/11/30 00:28:53;;;;;;;73.50;29.33;;;;;;;11.04;66.11;101529.81;677969;29;1245;-82
2022/11/30 00:29:13;;;;;;;71.27;29.10;;;;;;;11.08;66.04;101541.28;677781;29;1259;-82
2022/11/30 00:29:34;;;;;;;67.90;29.30;;;;;;;11.04;65.94;101534.16;675434;29;909;-81
2022/11/30 00:29:55;;;;;;;70.50;29.98;;;;;;;10.99;66.34;101531.38;680483;29;1233;-81
2022/11/30 00:30:16;;;;;;;68.90;30.70;;;;;;;10.90;66.32;101542.34;677649;29;1072;-81
2022/11/30 00:30:36;;;;;;;71.10;30.53;;;;;;;10.94;66.52;101540.75;675347;29;752;-81
2022/11/30 00:30:59;;;;;;;69.47;30.50;;;;;;;11.00;66.22;101537.50;672732;29;1140;-81
2022/11/30 00:31:19;;;;;;;69.25;30.30;;;;;;;11.04;66.20;101540.28;675229;29;1174;-82
2022/11/30 00:31:40;;;;;;;71.80;31.40;;;;;;;11.04;65.99;101539.38;675306;29;1270;-81
2022/11/30 00:32:01;;;;;;;72.13;31.40;;;;;;;11.10;66.24;101544.84;675346;29;1225;-81
2022/11/30 00:32:21;;;;;;;73.63;31.83;;;;;;;11.09;66.09;101537.84;677688;29;1123;-82
2022/11/30 00:32:42;;;;;;;70.13;30.80;;;;;;;11.10;65.78;101537.91;673363;29;1153;-81
2022/11/30 00:33:03;;;;;;;70.72;30.80;;;;;;;11.20;65.96;101548.69;677827;29;1314;-82
2022/11/30 00:33:24;;;;;;;71.38;31.02;;;;;;;11.13;66.04;101544.97;675188;29;1166;-81
2022/11/30 00:33:44;;;;;;;71.47;30.08;;;;;;;11.13;65.83;101539.75;678008;29;825;-81
2022/11/30 00:34:05;;;;;;;69.70;28.95;;;;;;;11.07;65.72;101535.16;680359;29;1192;-82
2022/11/30 00:34:25;;;;;;;67.97;28.57;;;;;;;11.13;66.28;101541.47;677890;29;1022;-82
2022/11/30 00:34:46;;;;;;;71.10;29.80;;;;;;;11.14;65.86;101536.31;677997;29;1138;-82
2022/11/30 00:35:07;;;;;;;70.20;29.97;;;;;;;11.20;66.02;101554.78;680411;29;1091;-81
2022/11/30 00:35:27;;;;;;;73.10;30.30;;;;;;;11.13;66.09;101531.91;680496;29;1200;-82
2022/11/30 00:35:59;;;;;;;72.35;30.08;;;;;;;11.18;65.86;101540.78;680528;29;1471;-81
2022/11/30 00:36:21;;;;;;;73.45;30.67;;;;;;;11.11;66.06;101541.38;675029;29;1376;-82
2022/11/30 00:36:42;;;;;;;72.95;31.40;;;;;;;10.94;66.30;101536.41;677980;29;1294;-81
2022/11/30 00:37:02;;;;;;;69.05;30.35;;;;;;;10.88;66.33;101538.78;672570;29;1035;-81
2022/11/30 00:37:23;;;;;;;67.90;30.00;;;;;;;10.85;66.55;101543.88;674791;29;1175;-81
2022/11/30 00:37:43;;;;;;;60.38;28.42;;;;;;;10.94;66.58;101549.47;677830;29;1164;-82
2022/11/30 00:38:04;;;;;;;64.45;28.92;;;;;;;10.89;66.64;101535.38;677753;29;1122;-82
2022/11/30 00:38:25;;;;;;;67.17;28.90;;;;;;;11.03;66.74;101553.25;677645;29;1121;-82
2022/11/30 00:38:45;;;;;;;70.20;29.73;;;;;;;11.00;66.46;101540.97;677800;29;1181;-81
2022/11/30 00:39:07;;;;;;;66.47;29.95;;;;;;;10.95;66.78;101539.94;675182;29;992;-82
2022/11/30 00:39:27;;;;;;;61.30;28.90;;;;;;;10.95;66.95;101548.63;675178;29;1305;-82
2022/11/30 00:39:48;;;;;;;59.25;28.10;;;;;;;10.97;66.76;101533.03;675211;29;1260;-82
2022/11/30 00:40:09;;;;;;;61.40;27.83;;;;;;;11.09;66.36;101546.56;677727;29;978;-81
2022/11/30 00:40:29;;;;;;;63.47;28.37;;;;;;;11.07;66.43;101544.72;677868;29;1449;-82
2022/11/30 00:40:51;;;;;;;63.37;28.00;;;;;;;11.05;66.46;101541.19;677954;29;824;-82
2022/11/30 00:41:12;;;;;;;61.33;27.48;;;;;;;11.09;66.47;101545.66;682665;29;1268;-82
2022/11/30 00:41:33;;;;;;;60.28;27.30;;;;;;;10.94;66.57;101543.38;685864;28;835;-81
2022/11/30 00:41:53;;;;;;;64.15;28.00;;;;;;;10.99;66.91;101548.78;685822;28;1068;-82
2022/11/30 00:42:14;;;;;;;66.30;28.37;;;;;;;10.94;66.87;101544.25;682927;29;1001;-82
2022/11/30 00:42:35;;;;;;;67.47;28.73;;;;;;;11.00;66.82;101540.09;677797;29;1300;-81
2022/11/30 00:42:55;;;;;;;65.68;28.63;;;;;;;11.07;66.86;101539.50;677821;29;1056;-82
2022/11/30 00:43:16;;;;;;;67.07;28.97;;;;;;;11.14;66.65;101548.47;672244;29;1118;-81
2022/11/30 00:43:38;;;;;;;66.57;28.55;;;;;;;11.10;66.73;101539.59;677750;29;1907;-81
2022/11/30 00:43:58;;;;;;;68.60;28.77;;;;;;;11.06;66.66;101527.28;680488;29;1288;-82
2022/11/30 00:44:19;;;;;;;67.33;28.80;;;;;;;11.14;66.52;101545.84;680284;29;1077;-81
2022/11/30 00:44:40;;;;;;;63.40;28.03;;;;;;;11.07;66.73;101544.72;678136;29;1178;-81
2022/11/30 00:45:00;;;;;;;56.92;26.98;;;;;;;11.13;66.31;101552.81;672840;29;816;-82
2022/11/30 00:45:21;;;;;;;50.80;25.10;;;;;;;11.12;66.37;101553.63;669886;29;1327;-83
2022/11/30 00:45:41;;;;;;;48.40;24.57;;;;;;;11.06;66.31;101535.13;672692;29;1083;-82
2022/11/30 00:46:02;;;;;;;49.38;24.25;;;;;;;11.06;66.51;101542.97;675233;29;1175;-81
2022/11/30 00:46:23;;;;;;;48.45;24.25;;;;;;;11.03;66.19;101542.81;672713;29;1207;-82
2022/11/30 00:46:43;;;;;;;47.73;24.07;;;;;;;11.01;66.27;101539.25;672607;29;1260;-82
2022/11/30 00:47:04;;;;;;;45.58;24.00;;;;;;;11.03;66.43;101543.72;672738;29;1072;-81
2022/11/30 00:47:24;;;;;;;44.22;23.63;;;;;;;11.03;66.27;101555.88;669956;29;1153;-82
2022/11/30 00:47:45;;;;;;;44.03;23.20;;;;;;;11.02;66.36;101552.41;675310;29;1320;-81
2022/11/30 00:48:06;;;;;;;41.17;22.30;;;;;;;11.06;66.25;101556.03;680276;29;1147;-81
2022/11/30 00:48:27;;;;;;;41.03;22.80;;;;;;;10.94;66.36;101544.25;683043;29;1225;-81
2022/11/30 00:48:47;;;;;;;38.95;22.17;;;;;;;10.95;66.17;101542.53;675364;29;1055;-82
2022/11/30 00:49:08;;;;;;;37.45;21.80;;;;;;;10.86;66.18;101543.06;682955;29;1181;-82
2022/11/30 00:49:28;;;;;;;37.47;21.83;;;;;;;10.95;66.47;101555.59;680528;29;1161;-81
2022/11/30 00:49:49;;;;;;;37.80;22.00;;;;;;;10.79;66.47;101543.63;683271;29;887;-82
2022/11/30 00:50:10;;;;;;;38.20;21.80;;;;;;;10.80;66.83;101542.81;677807;29;1157;-81
2022/11/30 00:50:30;;;;;;;36.92;20.55;;;;;;;10.80;66.59;101546.31;675313;29;1209;-81
2022/11/30 00:50:52;;;;;;;39.00;21.23;;;;;;;10.77;66.94;101545.31;678025;29;1512;-82
2022/11/30 00:51:13;;;;;;;40.03;21.50;;;;;;;10.70;66.80;101554.63;675074;29;1210;-81
2022/11/30 00:51:34;;;;;;;40.30;21.83;;;;;;;10.78;67.11;101553.22;675295;29;1301;-82
2022/11/30 00:51:54;;;;;;;39.53;21.37;;;;;;;10.66;66.93;101543.16;678002;29;804;-81
2022/11/30 00:52:15;;;;;;;37.17;21.00;;;;;;;10.57;67.33;101548.00;677622;29;1199;-81
2022/11/30 00:52:35;;;;;;;36.13;21.20;;;;;;;10.50;67.35;101546.88;677867;29;849;-81
2022/11/30 00:52:56;;;;;;;35.47;21.30;;;;;;;10.48;67.53;101542.41;675328;29;1275;-81
2022/11/30 00:53:18;;;;;;;37.80;21.45;;;;;;;10.60;67.36;101552.44;677753;29;1109;-81
2022/11/30 00:53:39;;;;;;;37.17;20.83;;;;;;;10.69;67.53;101558.94;677867;29;1372;-81
2022/11/30 00:54:00;;;;;;;38.45;21.30;;;;;;;10.68;67.18;101544.13;677995;29;785;-81
2022/11/30 00:54:21;;;;;;;36.80;20.73;;;;;;;10.74;67.00;101550.41;675042;29;1180;-82
2022/11/30 00:54:41;;;;;;;36.80;20.70;;;;;;;10.76;66.96;101548.75;677931;29;1045;-82
2022/11/30 00:55:02;;;;;;;34.90;19.88;;;;;;;10.81;66.81;101547.19;675324;29;1067;-82
2022/11/30 00:55:23;;;;;;;33.83;20.00;;;;;;;10.84;66.75;101544.72;672413;29;1135;-81
2022/11/30 00:55:44;;;;;;;35.50;20.47;;;;;;;10.88;66.57;101551.81;675173;29;1236;-82
2022/11/30 00:56:07;;;;;;;36.80;21.30;;;;;;;10.91;66.75;101556.28;675250;29;1089;-82
2022/11/30 00:56:28;;;;;;;37.58;21.83;;;;;;;10.86;66.33;101537.84;677847;29;1351;-81
2022/11/30 00:56:48;;;;;;;35.73;21.53;;;;;;;10.88;66.66;101548.34;675104;29;1045;-82
2022/11/30 00:57:09;;;;;;;35.67;22.08;;;;;;;10.82;66.52;101543.78;675154;29;1118;-81
2022/11/30 00:57:29;;;;;;;36.33;21.30;;;;;;;10.87;66.34;101544.84;675408;29;1143;-82
2022/11/30 00:57:50;;;;;;;36.73;21.27;;;;;;;10.85;66.42;101551.72;677167;29;1142;-81
2022/11/30 00:58:11;;;;;;;37.05;20.45;;;;;;;10.86;66.46;101563.94;680416;29;1127;-81
2022/11/30 00:58:34;;;;;;;36.60;20.73;;;;;;;10.78;66.48;101544.47;675260;29;1216;-81
2022/11/30 00:58:54;;;;;;;34.03;19.97;;;;;;;10.79;66.23;101541.94;675339;29;1188;-82
2022/11/30 00:59:15;;;;;;;34.43;19.87;;;;;;;10.82;66.48;101549.00;675081;29;1005;-82
2022/11/30 00:59:35;;;;;;;34.53;20.08;;;;;;;10.79;66.43;101544.53;677907;29;1238;-81
2022/11/30 00:59:56;;;;;;;37.13;20.97;;;;;;;10.82;66.43;101541.16;677935;29;784;-82
2022/11/30 01:00:17;;;;;;;36.00;21.17;;;;;;;10.88;66.50;101548.34;675058;29;1130;-82
2022/11/30 01:00:37;;;;;;;35.20;20.98;;;;;;;10.78;66.61;101544.47;675422;29;832;-81
2022/11/30 01:00:58;;;;;;;35.50;21.30;;;;;;;10.77;66.66;101538.38;672752;29;1079;-81
2022/11/30 01:01:19;;;;;;;36.73;21.97;;;;;;;10.79;66.34;101549.78;672475;29;1127;-81
2022/11/30 01:01:39;;;;;;;38.47;22.10;;;;;;;10.72;66.54;101536.41;670150;29;1307;-81
2022/11/30 01:02:00;;;;;;;36.65;21.98;;;;;;;10.73;66.38;101546.91;672769;29;766;-81
2022/11/30 01:02:20;;;;;;;36.50;21.90;;;;;;;10.77;66.77;101545.31;672486;29;1294;-82
2022/11/30 01:02:41;;;;;;;35.38;21.40;;;;;;;10.81;66.50;101552.41;670156;29;1633;-82
2022/11/30 01:03:02;;;;;;;35.70;21.30;;;;;;;10.80;66.61;101546.31;672674;29;1118;-81
2022/11/30 01:03:23;;;;;;;36.70;21.00;;;;;;;10.81;66.55;101553.31;680273;29;1273;-82
2022/11/30 01:03:43;;;;;;;37.10;21.23;;;;;;;10.76;66.47;101543.53;680541;29;1986;-82
2022/11/30 01:04:04;;;;;;;36.70;20.95;;;;;;;10.77;66.49;101529.66;679343;29;1182;-81
2022/11/30 01:04:25;;;;;;;35.00;20.92;;;;;;;10.75;66.57;101536.53;672715;29;1201;-82
2022/11/30 01:04:45;;;;;;;36.28;21.40;;;;;;;10.76;66.37;101536.56;680482;29;1290;-82
2022/11/30 01:05:06;;;;;;;35.87;21.73;;;;;;;10.75;66.49;101552.19;677721;29;1344;-81
2022/11/30 01:05:27;;;;;;;36.05;21.88;;;;;;;10.76;66.66;101536.56;675077;29;1138;-81
2022/11/30 01:05:48;;;;;;;35.63;21.38;;;;;;;10.76;66.50;101544.41;672729;29;1285;-82
2022/11/30 01:06:09;;;;;;;36.60;21.83;;;;;;;10.77;66.34;101543.59;675012;29;1121;-81
2022/11/30 01:06:30;;;;;;;36.58;21.98;;;;;;;10.66;66.53;101535.34;677888;29;761;-81
2022/11/30 01:06:50;;;;;;;35.00;21.40;;;;;;;10.73;66.47;101553.84;677002;29;1238;-81
2022/11/30 01:07:11;;;;;;;36.53;20.83;;;;;;;10.59;66.50;101540.22;677529;29;1277;-81
2022/11/30 01:07:31;;;;;;;38.30;20.90;;;;;;;10.58;66.70;101543.69;680491;29;1238;-82
2022/11/30 01:07:52;;;;;;;40.67;21.70;;;;;;;10.56;66.96;101541.00;677860;29;1067;-82
2022/11/30 01:08:15;;;;;;;39.00;22.00;;;;;;;10.60;67.04;101555.06;679525;29;1156;-81
2022/11/30 01:08:36;;;;;;;36.33;22.35;;;;;;;10.72;66.67;101552.97;675431;29;698;-82
2022/11/30 01:08:58;;;;;;;36.45;22.10;;;;;;;10.60;66.99;101540.31;677852;29;1072;-82
2022/11/30 01:09:18;;;;;;;35.30;22.05;;;;;;;10.66;66.96;101548.41;677768;29;1238;-81
2022/11/30 01:09:39;;;;;;;37.97;22.08;;;;;;;10.58;66.84;101541.06;677944;29;943;-82
2022/11/30 01:09:59;;;;;;;39.78;22.35;;;;;;;10.55;67.17;101544.44;677781;29;1119;-81
2022/11/30 01:10:21;;;;;;;39.87;22.30;;;;;;;10.63;66.81;101531.72;669949;29;1220;-81
2022/11/30 01:10:43;;;;;;;37.38;21.73;;;;;;;10.67;66.53;101536.22;677888;29;1333;-81
2022/11/30 01:11:16;;;;;;;36.58;22.25;;;;;;;10.73;66.58;101554.75;672732;29;1189;-82
2022/11/30 01:11:37;;;;;;;37.00;22.20;;;;;;;10.58;66.68;101536.75;672706;29;1115;-82
2022/11/30 01:11:58;;;;;;;38.13;22.02;;;;;;;10.67;66.79;101542.34;677881;29;1290;-82
2022/11/30 01:12:19;;;;;;;37.85;21.63;;;;;;;10.67;66.76;101544.94;677471;29;1246;-81
2022/11/30 01:12:40;;;;;;;39.00;21.90;;;;;;;10.74;66.65;101558.25;680559;29;862;-81
2022/11/30 01:13:01;;;;;;;39.93;21.83;;;;;;;10.73;66.49;101551.22;677955;29;939;-81
2022/11/30 01:13:23;;;;;;;39.20;21.13;;;;;;;10.72;66.49;101546.84;677655;29;1182;-81
2022/11/30 01:13:43;;;;;;;36.22;20.88;;;;;;;10.74;66.54;101548.69;677799;29;1113;-82
2022/11/30 01:14:04;;;;;;;36.77;21.00;;;;;;;10.76;66.28;101551.38;682996;29;1223;-82
2022/11/30 01:14:25;;;;;;;39.83;21.80;;;;;;;10.71;66.16;101535.53;685614;28;1208;-82
2022/11/30 01:14:46;;;;;;;40.97;22.48;;;;;;;10.72;66.33;101542.50;680515;29;1265;-81
2022/11/30 01:15:07;;;;;;;39.63;22.33;;;;;;;10.68;66.38;101541.50;675082;29;1523;-81
2022/11/30 01:15:29;;;;;;;36.63;22.05;;;;;;;10.63;66.62;101545.63;677794;29;1111;-81
2022/11/30 01:15:49;;;;;;;39.50;22.48;;;;;;;10.53;66.71;101547.00;677888;29;1215;-81
2022/11/30 01:16:14;;;;;;;40.00;22.90;;;;;;;10.54;67.09;101563.53;677689;29;1140;-81
2022/11/30 01:16:35;;;;;;;41.45;22.63;;;;;;;10.49;67.05;101558.13;677659;29;1277;-81
2022/11/30 01:16:55;;;;;;;40.42;22.33;;;;;;;10.39;67.31;101559.47;672574;29;1315;-81
2022/11/30 01:17:16;;;;;;;41.00;22.37;;;;;;;10.38;67.27;101557.69;677573;29;1440;-81
2022/11/30 01:17:36;;;;;;;39.97;22.37;;;;;;;10.35;67.25;101559.28;675306;29;1091;-81
2022/11/30 01:18:00;;;;;;;38.05;21.90;;;;;;;10.32;67.56;101554.81;675377;29;855;-82
2022/11/30 01:18:21;;;;;;;38.15;21.88;;;;;;;10.32;67.53;101557.44;672487;29;1313;-81
2022/11/30 01:18:43;;;;;;;40.25;22.20;;;;;;;10.39;67.75;101553.38;672760;29;863;-81
2022/11/30 01:19:03;;;;;;;42.28;22.83;;;;;;;10.35;67.46;101557.56;672789;29;1090;-81
2022/11/30 01:19:24;;;;;;;43.63;23.50;;;;;;;10.35;67.58;101559.28;672770;29;1118;-81
2022/11/30 01:19:45;;;;;;;43.83;23.33;;;;;;;10.29;67.45;101552.09;672715;29;1135;-81
2022/11/30 01:20:07;;;;;;;41.07;22.20;;;;;;;10.36;67.59;101564.56;672602;29;1186;-81
2022/11/30 01:20:27;;;;;;;38.85;21.70;;;;;;;10.31;67.95;101560.00;675338;29;1217;-81
2022/11/30 01:20:48;;;;;;;36.97;21.80;;;;;;;10.27;67.85;101554.63;675368;29;1057;-81
2022/11/30 01:21:12;;;;;;;39.25;22.10;;;;;;;10.33;67.64;101564.41;675135;29;1235;-81
2022/11/30 01:21:32;;;;;;;40.80;22.25;;;;;;;10.28;67.94;101560.75;678005;29;932;-82
2022/11/30 01:21:53;;;;;;;41.80;23.02;;;;;;;10.28;67.88;101560.75;675389;29;800;-81
2022/11/30 01:22:14;;;;;;;39.03;22.97;;;;;;;10.30;68.12;101564.31;672514;29;1204;-82
2022/11/30 01:22:34;;;;;;;37.55;23.23;;;;;;;10.30;68.10;101564.31;675371;29;1064;-81
2022/11/30 01:22:55;;;;;;;39.10;22.80;;;;;;;10.27;67.97;101556.38;677823;29;1167;-81
2022/11/30 01:23:16;;;;;;;40.28;22.75;;;;;;;10.29;67.90;101562.53;675581;29;1149;-81
2022/11/30 01:23:36;;;;;;;41.07;23.13;;;;;;;10.26;67.79;101558.06;675201;29;1915;-81
2022/11/30 01:23:57;;;;;;;40.58;23.35;;;;;;;10.27;68.11;101565.06;672886;29;834;-81
2022/11/30 01:24:17;;;;;;;39.67;23.13;;;;;;;10.34;68.20;101573.16;674995;29;1292;-81
2022/11/30 01:24:38;;;;;;;41.67;23.20;;;;;;;10.36;67.92;101564.56;677796;29;1185;-82
2022/11/30 01:24:59;;;;;;;43.28;23.50;;;;;;;10.39;67.82;101569.03;680508;29;1162;-81
2022/11/30 01:25:19;;;;;;;44.03;23.77;;;;;;;10.25;67.87;101558.91;680330;29;1177;-81
2022/11/30 01:25:40;;;;;;;43.22;23.42;;;;;;;10.26;67.99;101567.63;677811;29;1162;-81
2022/11/30 01:26:00;;;;;;;42.88;23.85;;;;;;;10.20;67.96;101554.28;677893;29;1380;-81
2022/11/30 01:26:22;;;;;;;44.30;23.50;;;;;;;10.24;67.98;101564.94;677656;29;1136;-81
2022/11/30 01:26:42;;;;;;;44.17;23.60;;;;;;;10.36;67.87;101556.75;680490;29;860;-81
2022/11/30 01:27:03;;;;;;;43.03;22.50;;;;;;;10.46;67.53;101554.50;677864;29;1164;-81
2022/11/30 01:27:24;;;;;;;40.17;22.48;;;;;;;10.51;67.79;101563.44;677734;29;1209;-81
2022/11/30 01:27:48;;;;;;;40.30;22.88;;;;;;;10.50;67.34;101564.25;680409;29;1350;-81
2022/11/30 01:28:09;;;;;;;41.50;23.77;;;;;;;10.55;67.18;101567.94;674936;29;1237;-81
2022/11/30 01:28:31;;;;;;;43.40;23.95;;;;;;;10.40;67.26;101555.16;677753;29;1127;-81
2022/11/30 01:28:53;;;;;;;41.90;23.48;;;;;;;10.43;67.27;101570.94;677888;29;1095;-81
2022/11/30 01:29:14;;;;;;;42.28;23.40;;;;;;;10.40;67.05;101568.19;672316;29;1395;-82
2022/11/30 01:29:34;;;;;;;43.37;23.53;;;;;;;10.39;67.63;101567.28;677860;29;823;-80
2022/11/30 01:29:55;;;;;;;45.95;24.38;;;;;;;10.52;67.45;101575.66;675255;29;1126;-80
2022/11/30 01:30:17;;;;;;;44.15;24.70;;;;;;;10.39;67.30;101569.91;677430;29;1212;-81
2022/11/30 01:30:38;;;;;;;42.25;24.63;;;;;;;10.35;67.37;101565.41;675317;29;887;-81
2022/11/30 01:31:07;;;;;;;40.20;24.20;;;;;;;10.34;67.41;101565.34;677875;29;864;-81
2022/11/30 01:31:27;;;;;;;43.13;24.50;;;;;;;10.25;67.66;101563.22;677685;29;1334;-81
2022/11/30 01:31:48;;;;;;;45.60;24.90;;;;;;;10.34;67.40;101555.81;680430;29;1131;-82
2022/11/30 01:32:09;;;;;;;46.65;24.38;;;;;;;10.41;67.38;101563.06;680189;29;1242;-81
2022/11/30 01:32:30;;;;;;;45.17;24.40;;;;;;;10.45;67.68;101571.00;677842;29;1294;-82
2022/11/30 01:32:51;;;;;;;43.90;24.17;;;;;;;10.44;67.40;101569.22;677868;29;1383;-81
2022/11/30 01:33:11;;;;;;;44.92;25.13;;;;;;;10.46;67.30;101564.94;674897;29;1094;-81
2022/11/30 01:33:32;;;;;;;45.17;25.25;;;;;;;10.54;67.16;101567.06;675355;29;749;-81
2022/11/30 01:33:54;;;;;;;45.92;25.05;;;;;;;10.52;66.92;101565.22;672615;29;1083;-81
2022/11/30 01:34:15;;;;;;;48.03;25.25;;;;;;;10.54;66.82;101568.75;674987;29;1709;-81
2022/11/30 01:34:35;;;;;;;51.10;25.10;;;;;;;10.59;66.96;101572.47;677769;29;1049;-81
2022/11/30 01:34:56;;;;;;;53.00;25.33;;;;;;;10.54;66.87;101568.75;675171;29;1186;-81
2022/11/30 01:35:16;;;;;;;52.08;25.45;;;;;;;10.47;66.99;101566.72;669849;29;1079;-81
2022/11/30 01:35:37;;;;;;;51.10;25.37;;;;;;;10.34;67.35;101563.63;675164;29;1156;-81
2022/11/30 01:36:06;;;;;;;50.45;25.80;;;;;;;10.29;67.49;101572.97;672631;29;1168;-81
2022/11/30 01:36:26;;;;;;;50.90;26.00;;;;;;;10.30;67.58;101573.88;672316;29;1423;-81
2022/11/30 01:36:47;;;;;;;52.67;26.37;;;;;;;10.20;67.48;101567.34;672581;29;738;-82
2022/11/30 01:37:08;;;;;;;50.83;25.98;;;;;;;10.21;67.74;101580.41;669123;29;1356;-81
2022/11/30 01:37:29;;;;;;;50.85;25.63;;;;;;;10.15;67.62;101575.84;670158;29;918;-81
2022/11/30 01:37:49;;;;;;;49.47;25.70;;;;;;;10.14;67.71;101570.56;675245;29;1205;-81
2022/11/30 01:38:10;;;;;;;49.20;26.07;;;;;;;10.11;67.96;101563.50;677636;29;1088;-82
2022/11/30 01:38:36;;;;;;;46.88;25.73;;;;;;;10.09;67.93;101570.34;680467;29;1320;-82
2022/11/30 01:38:57;;;;;;;46.40;24.92;;;;;;;10.04;68.16;101569.28;680282;29;851;-81